Terminal Aerodrome Forecast
Issued by NWS Chicago, IL

Home | Current Version | Previous Version | Graphics & Text | Print | Product List | Glossary On
Versions: 1 2 3 4 5 6 7 8 9 10 11 12 13 14 15 16 17 18 19 20 21 22 23 24 25 26 27 28 29 30 31 32
000
FTUS43 KLOT 012154 AAC
TAFRFD
TAF AMD
KRFD 012154Z 0122/0218 27012G18KT P6SM SCT060 SCT200
     FM020000 27010KT P6SM SCT070 SCT200
     FM020200 26008KT P6SM SCT200
     FM020900 23011KT P6SM SCT060 BKN200
     FM021300 23014G24KT P6SM VCSH SCT080 BKN100 PROB30 0214/0216
      4SM -TSRA BKN040CB=

USA.gov is the U.S. government's official web portal to all federal, state and local government web resources and services.